View Sortable Currents For Network
ASOSAWOSCoCoRaHSCOOPDCPISUSM
SchoolNetOtherSCANMy FavoritesBy StateRWIS
RWIS SurfaceRWIS TrafficRWIS SoilBy NWS WFOUSCRN

Current AWOS Conditions

** This page will automatically refresh every five minutes.
Sorted by: (Visibility)     Click on a column to sort it.

Add ID: Name: Ob Time   Wind [knots]   Rainfall
Temp (Hi / Lo) DewP Feels RH% Dir Speed Peak Gust
@ Time
Alti Vsby Hour Today
OXVKnoxville01:15 PM 25(28/23) 14 11 63 330 16G2127 @ 11:55 AM 30.46 10 0
RDKRED OAK01:15 PM 27(27/23) 12 14 53 20 1628 @ 06:55 AM 30.5 10 0
SHLSHELDON01:15 PM 21(21/19) 9 7 59 330 14G1922 @ 06:15 AM 30.49 10 0
SLBStorm Lake01:15 PM 23(23/19) 9 9 54 330 15G2222 @ 01:15 PM 30.47 10 0
FODFORT DODGE12:56 PM 22(23/17) 10 8 59 330 14G1919 @ 10:20 AM 30.47 10 0.0001 0.0001
ORCOrange City01:15 PM 25(25/19) 10 12 52 320 14G2124 @ 05:35 AM 30.51 10 0
LRJLE MARS01:15 PM 23(23/19) 9 9 54 320 15G2126 @ 06:35 AM 30.53 10 0
BNWBOONE MUNI01:15 PM 23(25/19) 12 9 62 330 16G2324 @ 11:15 AM 30.45 10 0
MUTMUSCATINE01:15 PM 28(34/27) 16 18 60 340 1019 @ 05:35 AM 30.44 10 0
CBFCOUNCIL BLUFFS01:15 PM 25(25/23) 12 13 57 330 12G1924 @ 11:55 AM 30.5 10 0
ADUAUDUBON01:15 PM 25(27/19) 12 13 57 340 12G2124 @ 11:15 AM 30.48 10 0
EBSWebster City01:15 PM 23(25/18) 9 8 54 330 19G2526 @ 12:15 PM 30.44 10 0
AWGWASHINGTON01:15 PM 27(32/25) 21 15 78 340 1421 @ 09:35 AM 30.44 10 0
MPZMOUNT PLEASANT01:15 PM 28(34/28) 21 16 75 340 13G1619 @ 03:15 AM 30.42 10 0
HPTHampton01:15 PM 23(25/18) 14 9 68 330 15G2022 @ 12:15 PM 30.44 10 0
CINCARROLL01:15 PM 25(27/19) 10 11 52 340 17G2328 @ 12:15 PM 30.49 10 0
AIOATLANTIC01:15 PM 25(27/21) 12 12 57 350 1525 @ 05:35 AM 30.49 10 0
CSQCRESTON01:15 PM 25(27/21) 12 12 57 360 15G2426 @ 09:15 AM 30.47 10 0
FXYForest City01:15 PM 23(23/19) 12 8 62 330 17G2124 @ 03:15 AM 30.45 10 0
FFLFAIRFIELD01:15 PM 27(32/25) 16 15 63 340 1322 @ 09:35 AM 30.43 10 0
ICLCLARINDA01:15 PM 25(28/23) 16 11 68 350 1626 @ 08:15 AM 30.52 10 0
DNSDENISON01:15 PM 23(27/21) 10 11 57 350 11G1722 @ 03:35 AM 30.51 10 0
I75Osceola01:15 PM 25(30/24) 15 13 65 350 12G1523 @ 11:35 AM 30.46 10 0
IFAIowa Falls01:15 PM 25(25/19) 14 11 63 320 16G2025 @ 11:55 AM 30.45 10 0
GGIGrinnell01:15 PM 25(27/21) 13 12 60 340 1426 @ 11:35 AM 30.45 10 0
AXAALGONA01:15 PM 21(23/18) 10 7 62 350 15G2226 @ 11:35 AM 30.46 10 0
PROPerry01:55 PM 25(27/20) 10 12 52 330 1525 @ 12:15 PM 30.48 10 0
OOAOskaloosa01:15 PM 26(29/22) 14 13 60 350 14G1926 @ 11:55 AM 30.45 10 0
TVKCenterville01:15 PM 25(30/23) 14 12 63 340 1424 @ 10:35 AM 30.44 10 0
PEAPELLA01:15 PM 26(29/23) 14 15 60 330 11G1923 @ 11:55 AM 30.48 10 0
VTIVINTON01:15 PM 26(26/22) 11 13 52 330 14G1822 @ 11:55 AM 30.41 10 0
CKPCherokee01:15 PM 24(24/21) 9 12 52 320 12G1920 @ 06:55 AM 30.51 10 0
CAVCLARION01:15 PM 21(23/18) 9 5 59 330 2027 @ 12:55 PM 30.46 10 0
CNCCHARITON01:15 PM 25(28/23) 14 13 63 360 12G1829 @ 11:35 AM 30.45 10 0
CWICLINTON12:56 PM 28(32/25) 20 19 72 350 918 @ 08:56 AM 30.38 10 0
MXOMONTICELLO MUNI01:15 PM 27(28/25) 14 16 58 340 1118 @ 12:55 PM 30.4 10 0
DEHDECORAH01:15 PM 23(25/21) 10 10 57 340 13G1922 @ 12:15 PM 30.38 10 0
CCYCHARLES CITY01:15 PM 23(25/18) 10 9 57 330 15G2323 @ 01:15 PM 30.42 10 0
SDASHENANDOAH MUNI01:15 PM 27(28/25) 14 15 58 340 1422 @ 10:35 AM 30.52 10 0
IIBINDEPENDENCE01:15 PM 27(28/24) 14 13 58 330 18G2325 @ 11:35 AM 30.4 10 0
TNUNEWTON MUNI01:15 PM 25(27/21) 14 12 63 340 14G2029 @ 10:35 AM 30.46 10 0
FSWFORT MADISON01:15 PM 27(34/25) 21 16 78 340 1218 @ 10:55 AM 30.41 2 0
EOKKEOKUK MUNI01:15 PM 27(36/25) 23 17 85 350 920 @ 11:15 AM 30.4 0.75 0
HNRHARLAN01:15 PM M(0/0) M M M @ 06:00 PM 0